createdAt,value
2022-12-23T00:01:26.619Z,99620.81
2022-12-23T00:03:57.603Z,99615.38
2022-12-23T00:06:24.085Z,99616.44
2022-12-23T00:08:58.730Z,99619.66
2022-12-23T00:11:27.042Z,99614.81
2022-12-23T00:14:20.096Z,99614.38
2022-12-23T00:16:48.232Z,99611.75
2022-12-23T00:19:15.069Z,99611.44
2022-12-23T00:21:41.610Z,99608.94
2022-12-23T00:24:08.187Z,99617.44
2022-12-23T00:26:34.844Z,99614.00
2022-12-23T00:29:01.359Z,99603.19
2022-12-23T00:31:28.001Z,99611.16
2022-12-23T00:33:54.768Z,99614.81
2022-12-23T00:36:27.738Z,99616.56
2022-12-23T00:39:14.270Z,99612.63
2022-12-23T00:41:59.683Z,99615.53
2022-12-23T00:44:26.665Z,99607.19
2022-12-23T00:46:53.287Z,99613.34
2022-12-23T00:49:39.443Z,99615.09
2022-12-23T00:52:08.039Z,99614.19
2022-12-23T00:54:34.563Z,99617.53
2022-12-23T00:57:01.578Z,99616.84
2022-12-23T00:59:28.169Z,99626.53
2022-12-23T01:02:13.360Z,99623.28
2022-12-23T01:04:58.965Z,99629.31
2022-12-23T01:07:25.903Z,99628.03
2022-12-23T01:09:52.560Z,99629.34
2022-12-23T01:12:19.269Z,99623.56
2022-12-23T01:14:46.015Z,99620.38
2022-12-23T01:17:12.623Z,99619.06
2022-12-23T01:19:39.367Z,99627.41
2022-12-23T01:22:06.146Z,99625.09
2022-12-23T01:24:33.333Z,99624.06
2022-12-23T01:27:00.454Z,99616.44
2022-12-23T01:29:27.248Z,99622.56
2022-12-23T01:31:53.948Z,99624.34
2022-12-23T01:34:20.504Z,99618.78
2022-12-23T01:36:47.104Z,99631.97
2022-12-23T01:39:13.744Z,99622.16
2022-12-23T01:41:59.075Z,99621.25
2022-12-23T01:44:53.390Z,99624.19
2022-12-23T01:47:38.960Z,99633.91
2022-12-23T01:50:12.051Z,99636.50
2022-12-23T01:52:44.763Z,99650.16
2022-12-23T01:55:13.089Z,99646.34
2022-12-23T01:57:42.346Z,99643.56
2022-12-23T02:03:22.488Z,99645.63
2022-12-23T02:05:50.021Z,99655.16
2022-12-23T02:08:36.301Z,99649.59
2022-12-23T02:11:34.510Z,99646.50
2022-12-23T02:14:43.829Z,99646.50
2022-12-23T02:17:21.296Z,99632.72
2022-12-23T02:19:53.512Z,99631.69
2022-12-23T02:22:47.773Z,99637.25
2022-12-23T02:25:29.205Z,99636.81
2022-12-23T02:28:29.486Z,99633.59
2022-12-23T02:31:04.127Z,99632.13
2022-12-23T02:33:32.921Z,99642.41
2022-12-23T02:36:14.433Z,99654.13
2022-12-23T02:38:54.087Z,99651.47
2022-12-23T02:41:29.697Z,99648.53
2022-12-23T02:44:12.389Z,99641.94
2022-12-23T02:46:46.182Z,99626.81
2022-12-23T02:49:19.626Z,99633.38
2022-12-23T02:51:50.485Z,99633.28
2022-12-23T02:54:23.713Z,99634.88
2022-12-23T02:56:52.634Z,99625.03
2022-12-23T02:59:24.244Z,99624.78
2022-12-23T03:01:53.380Z,99632.84
2022-12-23T03:04:20.078Z,99639.56
2022-12-23T03:06:51.570Z,99622.00
2022-12-23T03:09:24.104Z,99614.72
2022-12-23T03:12:09.906Z,99625.13
2022-12-23T03:14:51.126Z,99622.50
2022-12-23T03:17:41.592Z,99633.34
2022-12-23T03:20:26.807Z,99640.81
2022-12-23T03:23:03.641Z,99631.63
2022-12-23T03:25:38.961Z,99632.16
2022-12-23T03:28:19.301Z,99623.25
2022-12-23T03:30:51.358Z,99624.25
2022-12-23T03:33:26.834Z,99622.00
2022-12-23T03:35:59.873Z,99629.63
2022-12-23T03:38:27.581Z,99623.03
2022-12-23T03:40:57.849Z,99625.00
2022-12-23T03:43:31.894Z,99614.47
2022-12-23T03:46:04.261Z,99607.41
2022-12-23T03:48:36.520Z,99615.50
2022-12-23T03:51:10.435Z,99615.66
2022-12-23T03:53:42.465Z,99624.78
2022-12-23T03:56:19.049Z,99624.72
2022-12-23T03:58:59.380Z,99618.22
2022-12-23T04:01:55.368Z,99626.81
2022-12-23T04:04:30.020Z,99631.66
2022-12-23T04:07:01.017Z,99638.88
2022-12-23T04:09:28.812Z,99629.31
2022-12-23T04:11:58.145Z,99624.78
2022-12-23T04:14:24.795Z,99626.84
2022-12-23T04:16:56.143Z,99622.28
2022-12-23T04:19:23.085Z,99630.47
2022-12-23T04:21:49.741Z,99633.44
2022-12-23T04:24:16.318Z,99629.16
2022-12-23T04:26:42.921Z,99624.44
2022-12-23T04:29:09.510Z,99619.03
2022-12-23T04:31:36.064Z,99623.13
2022-12-23T04:34:02.676Z,99625.75
2022-12-23T04:36:29.256Z,99622.91
2022-12-23T04:38:55.795Z,99613.81
2022-12-23T04:41:22.803Z,99623.94
2022-12-23T04:43:53.020Z,99624.59
2022-12-23T04:46:20.242Z,99636.06
2022-12-23T04:48:46.913Z,99626.66
2022-12-23T04:51:13.473Z,99625.03
2022-12-23T04:53:39.997Z,99614.19
2022-12-23T04:56:06.719Z,99613.28
2022-12-23T04:58:33.357Z,99602.72
2022-12-23T05:01:05.768Z,99608.88
2022-12-23T05:03:33.071Z,99602.47
2022-12-23T05:05:59.803Z,99609.81
2022-12-23T05:08:26.898Z,99608.50
2022-12-23T05:10:53.631Z,99598.75
2022-12-23T05:13:20.308Z,99616.56
2022-12-23T05:15:50.273Z,99601.28
2022-12-23T05:18:17.223Z,99617.69
2022-12-23T05:20:44.048Z,99613.28
2022-12-23T05:23:10.710Z,99631.34
2022-12-23T05:25:38.372Z,99626.25
2022-12-23T05:28:06.453Z,99614.97
2022-12-23T05:30:33.024Z,99620.34
2022-12-23T05:32:59.859Z,99606.66
2022-12-23T05:35:27.562Z,99609.53
2022-12-23T05:37:54.215Z,99597.88
2022-12-23T05:40:24.240Z,99612.69
2022-12-23T05:42:53.538Z,99616.09
2022-12-23T05:45:20.818Z,99615.81
2022-12-23T05:47:47.689Z,99624.16
2022-12-23T05:50:14.584Z,99628.56
2022-12-23T05:52:41.139Z,99630.03
2022-12-23T05:55:08.466Z,99633.84
2022-12-23T05:57:35.010Z,99613.31
2022-12-23T06:00:03.948Z,99611.09
2022-12-23T06:02:30.605Z,99610.81
2022-12-23T06:04:57.490Z,99616.38
2022-12-23T06:07:24.000Z,99628.28
2022-12-23T06:09:50.736Z,99606.28
2022-12-23T06:12:17.230Z,99600.41
2022-12-23T06:14:43.747Z,99604.25
2022-12-23T06:17:11.508Z,99616.44
2022-12-23T06:19:38.075Z,99621.13
2022-12-23T06:22:04.652Z,99627.59
2022-12-23T06:24:31.400Z,99620.22
2022-12-23T06:26:57.920Z,99639.00
2022-12-23T06:29:25.049Z,99634.28
2022-12-23T06:31:51.745Z,99630.34
2022-12-23T06:34:18.481Z,99634.31
2022-12-23T06:36:45.058Z,99643.09
2022-12-23T06:39:11.824Z,99620.19
2022-12-23T06:41:38.411Z,99639.75
2022-12-23T06:44:05.291Z,99652.81
2022-12-23T06:46:32.066Z,99646.94
2022-12-23T06:48:58.677Z,99649.72
2022-12-23T06:51:25.198Z,99652.94
2022-12-23T06:53:51.955Z,99654.13
2022-12-23T06:56:18.864Z,99662.19
2022-12-23T06:58:45.451Z,99665.09
2022-12-23T07:01:12.228Z,99661.75
2022-12-23T07:03:38.954Z,99663.97
2022-12-23T07:06:05.811Z,99661.75
2022-12-23T07:08:32.435Z,99649.56
2022-12-23T07:11:03.473Z,99656.31
2022-12-23T07:13:30.794Z,99655.31
2022-12-23T07:15:57.662Z,99660.28
2022-12-23T07:18:25.015Z,99669.53
2022-12-23T07:20:52.470Z,99663.63
2022-12-23T07:23:19.264Z,99656.91
2022-12-23T07:25:45.768Z,99672.75
2022-12-23T07:28:12.264Z,99684.63
2022-12-23T07:30:39.044Z,99673.94
2022-12-23T07:33:05.579Z,99666.91
2022-12-23T07:35:32.082Z,99677.44
2022-12-23T07:37:58.679Z,99684.03
2022-12-23T07:40:25.848Z,99676.28
2022-12-23T07:42:57.752Z,99668.50
2022-12-23T07:45:28.802Z,99671.72
2022-12-23T07:48:01.193Z,99668.50
2022-12-23T07:50:28.053Z,99689.47
2022-12-23T07:52:55.728Z,99671.56
2022-12-23T07:55:22.261Z,99662.34
2022-12-23T07:57:49.920Z,99677.75
2022-12-23T08:00:17.692Z,99680.25
2022-12-23T08:02:44.452Z,99673.34
2022-12-23T08:05:12.138Z,99685.50
2022-12-23T08:07:39.276Z,99686.25
2022-12-23T08:10:06.934Z,99684.22
2022-12-23T08:12:33.555Z,99676.59
2022-12-23T08:15:00.785Z,99690.06
2022-12-23T08:17:28.720Z,99682.41
2022-12-23T08:19:55.672Z,99681.84
2022-12-23T08:22:22.605Z,99689.16
2022-12-23T08:24:49.149Z,99708.97
2022-12-23T08:27:16.400Z,99708.13
2022-12-23T08:29:43.063Z,99707.81
2022-12-23T08:32:09.664Z,99699.72
2022-12-23T08:34:36.336Z,99705.16
2022-12-23T08:37:03.014Z,99709.41
2022-12-23T08:39:29.865Z,99704.28
2022-12-23T08:41:56.489Z,99718.81
2022-12-23T08:44:23.220Z,99715.59
2022-12-23T08:46:49.751Z,99712.94
2022-12-23T08:49:16.506Z,99722.31
2022-12-23T08:51:43.207Z,99725.56
2022-12-23T08:54:10.297Z,99708.69
2022-12-23T08:56:40.689Z,99707.22
2022-12-23T08:59:18.093Z,99705.59
2022-12-23T09:01:45.662Z,99711.13
2022-12-23T09:04:12.357Z,99725.53
2022-12-23T09:06:41.618Z,99719.53
2022-12-23T09:09:10.368Z,99715.13
2022-12-23T09:11:37.429Z,99725.56
2022-12-23T09:14:05.538Z,99711.63
2022-12-23T09:16:32.442Z,99721.91
2022-12-23T09:18:59.314Z,99723.81
2022-12-23T09:21:26.229Z,99727.19
2022-12-23T09:23:52.944Z,99728.94
2022-12-23T09:26:28.317Z,99734.38
2022-12-23T09:28:55.879Z,99736.16
2022-12-23T09:31:23.928Z,99740.84
2022-12-23T09:33:52.761Z,99727.91
2022-12-23T09:36:20.637Z,99731.09
2022-12-23T09:38:47.359Z,99739.63
2022-12-23T09:41:42.979Z,99733.53
2022-12-23T09:44:27.492Z,99732.81
2022-12-23T09:46:58.423Z,99736.34
2022-12-23T09:49:25.067Z,99744.94
2022-12-23T09:51:55.741Z,99757.63
2022-12-23T09:54:24.256Z,99753.81
2022-12-23T09:57:36.525Z,99753.94
2022-12-23T10:00:07.945Z,99735.59
2022-12-23T10:03:12.639Z,99722.34
2022-12-23T10:06:02.004Z,99735.47
2022-12-23T10:08:38.870Z,99723.25
2022-12-23T10:11:25.569Z,99728.44
2022-12-23T10:14:00.651Z,99738.25
2022-12-23T10:16:35.471Z,99728.53
2022-12-23T10:19:07.435Z,99720.47
2022-12-23T10:21:47.679Z,99715.63
2022-12-23T10:24:33.942Z,99722.19
2022-12-23T10:27:00.438Z,99718.81
2022-12-23T10:29:31.464Z,99722.34
2022-12-23T10:32:19.644Z,99741.66
2022-12-23T10:35:01.413Z,99743.56
2022-12-23T10:37:37.142Z,99736.03
2022-12-23T10:40:09.759Z,99749.03
2022-12-23T10:42:57.353Z,99753.13
2022-12-23T10:45:42.735Z,99753.28
2022-12-23T10:48:30.994Z,99754.00
2022-12-23T10:51:04.635Z,99756.19
2022-12-23T10:53:37.836Z,99761.47
2022-12-23T10:56:06.545Z,99769.91
2022-12-23T10:58:37.210Z,99769.84
2022-12-23T11:01:14.935Z,99768.16
2022-12-23T11:03:51.762Z,99756.78
2022-12-23T11:06:19.645Z,99761.63
2022-12-23T11:08:46.658Z,99751.06
2022-12-23T11:11:13.246Z,99776.31
2022-12-23T11:13:41.037Z,99771.28
2022-12-23T11:16:22.889Z,99767.97
2022-12-23T11:18:58.567Z,99759.06
2022-12-23T11:21:26.419Z,99747.88
2022-12-23T11:24:19.971Z,99742.50
2022-12-23T11:26:49.609Z,99735.50
2022-12-23T11:29:24.203Z,99727.47
2022-12-23T11:31:51.532Z,99727.22
2022-12-23T11:34:22.693Z,99718.38
2022-12-23T11:36:58.748Z,99714.66
2022-12-23T11:39:33.934Z,99703.63
2022-12-23T11:42:06.059Z,99698.59
2022-12-23T11:44:36.038Z,99687.09
2022-12-23T11:47:41.294Z,99676.53
2022-12-23T11:50:27.791Z,99680.03
2022-12-23T11:53:01.269Z,99678.28
2022-12-23T11:55:32.901Z,99693.03
2022-12-23T11:58:01.616Z,99689.72
2022-12-23T12:00:41.982Z,99696.47
2022-12-23T12:03:17.632Z,99678.78
2022-12-23T12:05:51.556Z,99692.50
2022-12-23T12:08:22.044Z,99698.66
2022-12-23T12:10:52.726Z,99696.88
2022-12-23T12:13:22.579Z,99689.25
2022-12-23T12:15:58.173Z,99685.13
2022-12-23T12:18:26.126Z,99686.41
2022-12-23T12:21:00.906Z,99693.41
2022-12-23T12:23:41.322Z,99678.63
2022-12-23T12:26:32.713Z,99677.53
2022-12-23T12:29:24.277Z,99676.03
2022-12-23T12:31:57.700Z,99682.16
2022-12-23T12:34:29.957Z,99685.09
2022-12-23T12:37:37.964Z,99680.03
2022-12-23T12:40:43.465Z,99679.56
2022-12-23T12:43:25.272Z,99655.00
2022-12-23T12:45:57.987Z,99649.56
2022-12-23T12:48:28.332Z,99639.03
2022-12-23T12:50:59.568Z,99633.97
2022-12-23T12:53:28.357Z,99653.09
2022-12-23T12:56:07.491Z,99654.84
2022-12-23T12:58:34.016Z,99658.03
2022-12-23T13:01:18.306Z,99665.88
2022-12-23T13:04:08.352Z,99671.47
2022-12-23T13:06:56.191Z,99671.53
2022-12-23T13:09:55.150Z,99657.44
2022-12-23T13:12:56.510Z,99658.88
2022-12-23T13:15:38.180Z,99649.72
2022-12-23T13:18:32.133Z,99638.69
2022-12-23T13:21:06.286Z,99629.22
2022-12-23T13:23:44.083Z,99628.84
2022-12-23T13:26:42.091Z,99615.84
2022-12-23T13:29:11.576Z,99617.41
2022-12-23T13:31:56.089Z,99622.28
2022-12-23T13:34:29.042Z,99609.84
2022-12-23T13:37:21.560Z,99609.00
2022-12-23T13:40:16.073Z,99613.50
2022-12-23T13:42:48.170Z,99610.97
2022-12-23T13:45:17.501Z,99601.59
2022-12-23T13:48:07.588Z,99603.91
2022-12-23T13:50:50.294Z,99596.72
2022-12-23T13:53:26.205Z,99598.31
2022-12-23T13:56:11.813Z,99594.78
2022-12-23T13:58:40.278Z,99591.88
2022-12-23T14:01:09.684Z,99599.16
2022-12-23T14:03:38.789Z,99591.47
2022-12-23T14:06:23.560Z,99584.09
2022-12-23T14:08:51.497Z,99584.91
2022-12-23T14:11:28.718Z,99584.56
2022-12-23T14:14:01.594Z,99588.59
2022-12-23T14:16:47.793Z,99611.34
2022-12-23T14:19:38.446Z,99613.44
2022-12-23T14:22:33.046Z,99596.47
2022-12-23T14:25:21.609Z,99598.81
2022-12-23T14:28:25.494Z,99603.69
2022-12-23T14:30:52.303Z,99602.94
2022-12-23T14:33:18.978Z,99610.47
2022-12-23T14:35:45.434Z,99602.31
2022-12-23T14:38:15.120Z,99613.06
2022-12-23T14:40:41.610Z,99600.63
2022-12-23T14:43:23.464Z,99601.00
2022-12-23T14:45:52.627Z,99601.34
2022-12-23T14:48:34.446Z,99600.50
2022-12-23T14:51:31.408Z,99603.56
2022-12-23T14:53:58.093Z,99605.63
2022-12-23T14:56:30.755Z,99607.69
2022-12-23T14:59:12.654Z,99602.69
2022-12-23T15:01:54.081Z,99601.84
2022-12-23T15:04:24.673Z,99605.13
2022-12-23T15:06:55.490Z,99604.00
2022-12-23T15:09:22.007Z,99590.59
2022-12-23T15:11:48.823Z,99592.53
2022-12-23T15:14:27.157Z,99593.66
2022-12-23T15:16:53.826Z,99597.69
2022-12-23T15:19:23.557Z,99590.78
2022-12-23T15:21:58.324Z,99595.63
2022-12-23T15:24:27.012Z,99600.03
2022-12-23T15:27:24.759Z,99598.94
2022-12-23T15:29:46.031Z,99601.47
2022-12-23T15:32:12.663Z,99598.06
2022-12-23T15:34:39.392Z,99612.81
2022-12-23T15:37:16.179Z,99619.13
2022-12-23T15:39:45.045Z,99613.88
2022-12-23T15:42:25.809Z,99607.44
2022-12-23T15:44:52.837Z,99615.13
2022-12-23T15:47:29.640Z,99610.72
2022-12-23T15:50:00.117Z,99617.53
2022-12-23T15:52:29.295Z,99613.53
2022-12-23T15:55:01.839Z,99609.50
2022-12-23T15:57:30.014Z,99606.97
2022-12-23T15:59:58.537Z,99609.53
2022-12-23T16:05:35.154Z,99612.16
2022-12-23T16:08:28.599Z,99609.63
2022-12-23T16:10:58.513Z,99610.97
2022-12-23T16:13:25.840Z,99615.00
2022-12-23T16:15:52.411Z,99622.41
2022-12-23T16:18:25.678Z,99621.31
2022-12-23T16:20:56.265Z,99629.81
2022-12-23T16:23:23.785Z,99633.69
2022-12-23T16:25:53.172Z,99637.81
2022-12-23T16:28:24.494Z,99648.41
2022-12-23T16:30:57.102Z,99656.88
2022-12-23T16:33:37.793Z,99659.34
2022-12-23T16:36:19.893Z,99666.78
2022-12-23T16:38:47.724Z,99672.34
2022-12-23T16:41:14.576Z,99674.38
2022-12-23T16:43:49.435Z,99672.16
2022-12-23T16:46:21.153Z,99673.25
2022-12-23T16:48:59.788Z,99683.69
2022-12-23T16:51:28.050Z,99680.63
2022-12-23T16:53:57.506Z,99686.84
2022-12-23T16:56:30.498Z,99689.63
2022-12-23T16:58:57.035Z,99684.75
2022-12-23T17:01:27.742Z,99686.97
2022-12-23T17:03:55.926Z,99690.78
2022-12-23T17:06:23.515Z,99698.69
2022-12-23T17:08:50.582Z,99696.50
2022-12-23T17:11:29.865Z,99704.75
2022-12-23T17:14:03.931Z,99705.72
2022-12-23T17:16:32.843Z,99707.88
2022-12-23T17:19:00.155Z,99706.13
2022-12-23T17:21:30.989Z,99692.41
2022-12-23T17:24:12.749Z,99701.47
2022-12-23T17:26:39.521Z,99703.38
2022-12-23T17:29:06.798Z,99696.78
2022-12-23T17:31:34.848Z,99705.72
2022-12-23T17:34:02.068Z,99708.88
2022-12-23T17:36:29.076Z,99705.00
2022-12-23T17:38:55.999Z,99695.88
2022-12-23T17:41:28.286Z,99704.72
2022-12-23T17:43:55.619Z,99705.53
2022-12-23T17:46:22.562Z,99704.13
2022-12-23T17:48:49.165Z,99707.28
2022-12-23T17:51:17.650Z,99706.78
2022-12-23T17:53:45.657Z,99708.38
2022-12-23T17:56:15.434Z,99708.66
2022-12-23T17:58:42.953Z,99711.91
2022-12-23T18:01:19.314Z,99713.06
2022-12-23T18:03:46.217Z,99723.50
2022-12-23T18:06:14.734Z,99727.97
2022-12-23T18:08:41.637Z,99739.84
2022-12-23T18:11:09.663Z,99741.09
2022-12-23T18:13:36.481Z,99738.97
2022-12-23T18:16:03.161Z,99746.28
2022-12-23T18:18:39.280Z,99743.16
2022-12-23T18:21:33.734Z,99745.94
2022-12-23T18:24:00.308Z,99757.22
2022-12-23T18:26:26.939Z,99751.09
2022-12-23T18:28:54.624Z,99723.84
2022-12-23T18:31:25.752Z,99715.94
2022-12-23T18:33:52.998Z,99715.16
2022-12-23T18:36:37.580Z,99715.16
2022-12-23T18:39:04.262Z,99715.16
2022-12-23T18:41:30.762Z,99713.00
2022-12-23T18:43:57.410Z,99685.63
2022-12-23T18:46:24.175Z,99679.09
2022-12-23T18:48:51.680Z,99667.31
2022-12-23T18:51:20.657Z,99663.41
2022-12-23T18:53:47.941Z,99667.34
2022-12-23T18:56:15.801Z,99692.28
2022-12-23T18:58:42.713Z,99709.13
2022-12-23T19:01:13.194Z,99707.00
2022-12-23T19:03:40.022Z,99718.50
2022-12-23T19:06:08.514Z,99715.63
2022-12-23T19:08:37.433Z,99718.84
2022-12-23T19:11:16.676Z,99709.34
2022-12-23T19:13:43.703Z,99713.34
2022-12-23T19:16:15.466Z,99708.28
2022-12-23T19:18:42.693Z,99712.63
2022-12-23T19:21:09.521Z,99721.94
2022-12-23T19:23:37.239Z,99707.03
2022-12-23T19:26:06.545Z,99703.38
2022-12-23T19:28:33.729Z,99700.06
2022-12-23T19:31:00.370Z,99706.28
2022-12-23T19:33:26.998Z,99702.41
2022-12-23T19:35:53.633Z,99696.31
2022-12-23T19:38:20.134Z,99711.03
2022-12-23T19:40:56.261Z,99706.66
2022-12-23T19:43:22.779Z,99720.22
2022-12-23T19:46:03.895Z,99710.44
2022-12-23T19:48:31.111Z,99705.66
2022-12-23T19:51:12.507Z,99687.22
2022-12-23T19:53:41.141Z,99696.16
2022-12-23T19:56:17.232Z,99701.66
2022-12-23T19:58:44.247Z,99717.78
2022-12-23T20:01:14.473Z,99710.22
2022-12-23T20:03:42.409Z,99716.47
2022-12-23T20:06:14.147Z,99718.56
2022-12-23T20:08:40.756Z,99723.44
2022-12-23T20:11:10.288Z,99726.41
2022-12-23T20:13:36.990Z,99724.59
2022-12-23T20:16:04.725Z,99724.34
2022-12-23T20:18:32.100Z,99728.00
2022-12-23T20:20:59.532Z,99728.41
2022-12-23T20:23:26.323Z,99738.28
2022-12-23T20:25:53.323Z,99731.00
2022-12-23T20:28:19.862Z,99710.22
2022-12-23T20:30:48.437Z,99720.28
2022-12-23T20:33:15.824Z,99711.19
2022-12-23T20:35:42.446Z,99712.41
2022-12-23T20:38:09.014Z,99714.09
2022-12-23T20:40:35.619Z,99721.63
2022-12-23T20:43:03.023Z,99719.88
2022-12-23T20:45:29.560Z,99726.38
2022-12-23T20:47:56.253Z,99726.53
2022-12-23T20:50:22.743Z,99725.53
2022-12-23T20:52:49.234Z,99723.16
2022-12-23T20:55:15.914Z,99708.72
2022-12-23T20:57:44.928Z,99715.03
2022-12-23T21:00:12.531Z,99705.59
2022-12-23T21:02:39.311Z,99712.34
2022-12-23T21:05:05.973Z,99720.97
2022-12-23T21:07:32.486Z,99731.91
2022-12-23T21:09:59.148Z,99736.72
2022-12-23T21:12:25.644Z,99736.53
2022-12-23T21:14:52.172Z,99720.78
2022-12-23T21:17:18.967Z,99720.31
2022-12-23T21:19:45.526Z,99719.91
2022-12-23T21:22:12.067Z,99715.78
2022-12-23T21:24:39.159Z,99725.06
2022-12-23T21:27:05.673Z,99732.66
2022-12-23T21:29:32.160Z,99735.03
2022-12-23T21:32:00.664Z,99740.88
2022-12-23T21:34:27.282Z,99745.91
2022-12-23T21:36:53.961Z,99740.59
2022-12-23T21:39:20.777Z,99749.03
2022-12-23T21:41:49.196Z,99748.59
2022-12-23T21:44:15.739Z,99753.97
2022-12-23T21:46:42.553Z,99755.09
2022-12-23T21:49:09.579Z,99761.34
2022-12-23T21:51:40.503Z,99769.88
2022-12-23T21:54:10.005Z,99785.94
2022-12-23T21:56:36.694Z,99806.19
2022-12-23T21:59:07.214Z,99817.66
2022-12-23T22:01:34.073Z,99792.72
2022-12-23T22:04:00.623Z,99794.66
2022-12-23T22:06:30.340Z,99776.13
2022-12-23T22:08:57.129Z,99790.06
2022-12-23T22:11:27.398Z,99805.91
2022-12-23T22:13:56.016Z,99818.44
2022-12-23T22:16:24.742Z,99825.78
2022-12-23T22:18:52.455Z,99814.16
2022-12-23T22:21:21.560Z,99806.38
2022-12-23T22:23:49.249Z,99801.53
2022-12-23T22:26:24.150Z,99804.44
2022-12-23T22:28:52.897Z,99815.34
2022-12-23T22:31:36.812Z,99819.31
2022-12-23T22:34:04.815Z,99814.19
2022-12-23T22:36:31.544Z,99814.16
2022-12-23T22:38:59.896Z,99811.84
2022-12-23T22:41:30.776Z,99821.28
2022-12-23T22:43:58.473Z,99825.59
2022-12-23T22:46:26.292Z,99827.06
2022-12-23T22:48:53.350Z,99821.34
2022-12-23T22:51:22.694Z,99819.47
2022-12-23T22:53:49.296Z,99805.84
2022-12-23T22:56:17.996Z,99793.22
2022-12-23T22:58:44.677Z,99802.50
2022-12-23T23:01:23.480Z,99809.91
2022-12-23T23:03:57.078Z,99805.38
2022-12-23T23:06:25.868Z,99813.44
2022-12-23T23:08:53.401Z,99817.94
2022-12-23T23:11:20.191Z,99835.03
2022-12-23T23:13:46.971Z,99816.53
2022-12-23T23:16:13.660Z,99818.31
2022-12-23T23:18:40.616Z,99822.25
2022-12-23T23:21:08.539Z,99829.16
2022-12-23T23:23:35.668Z,99839.59
2022-12-23T23:26:02.628Z,99833.44
2022-12-23T23:28:29.493Z,99840.91
2022-12-23T23:31:23.931Z,99836.63
2022-12-23T23:33:42.940Z,99831.75
2022-12-23T23:36:09.942Z,99828.84
2022-12-23T23:38:36.595Z,99834.75
2022-12-23T23:41:03.383Z,99837.22
2022-12-23T23:43:29.914Z,99837.38
2022-12-23T23:45:56.447Z,99824.59
2022-12-23T23:48:23.920Z,99810.88
2022-12-23T23:50:50.534Z,99823.88
2022-12-23T23:53:17.924Z,99839.59
2022-12-23T23:55:44.592Z,99838.22
2022-12-23T23:58:11.905Z,99837.22
